createdAt,value
2018-05-27T00:00:25.193Z,15.20
2018-05-27T00:02:51.226Z,15.20
2018-05-27T00:05:17.300Z,15.20
2018-05-27T00:07:43.347Z,15.20
2018-05-27T00:10:09.388Z,15.20
2018-05-27T00:12:35.426Z,15.20
2018-05-27T00:15:01.482Z,15.20
2018-05-27T00:17:27.584Z,15.20
2018-05-27T00:19:54.345Z,15.10
2018-05-27T00:22:20.404Z,15.10
2018-05-27T00:24:46.437Z,15.10
2018-05-27T00:27:12.874Z,15.10
2018-05-27T00:29:46.036Z,15.10
2018-05-27T00:32:12.119Z,15.10
2018-05-27T00:34:38.214Z,15.00
2018-05-27T00:37:04.310Z,15.00
2018-05-27T00:39:30.378Z,15.00
2018-05-27T00:41:56.580Z,15.00
2018-05-27T00:44:22.713Z,14.90
2018-05-27T00:46:48.753Z,14.90
2018-05-27T00:49:14.820Z,14.90
2018-05-27T00:51:40.908Z,14.80
2018-05-27T00:54:07.714Z,14.80
2018-05-27T00:56:33.766Z,14.80
2018-05-27T00:58:59.837Z,14.80
2018-05-27T01:01:25.866Z,14.80
2018-05-27T01:03:52.706Z,14.80
2018-05-27T01:06:18.745Z,14.80
2018-05-27T01:08:45.571Z,14.80
2018-05-27T01:11:11.708Z,14.80
2018-05-27T01:13:38.042Z,14.80
2018-05-27T01:16:04.087Z,14.80
2018-05-27T01:18:30.149Z,14.70
2018-05-27T01:20:56.344Z,14.70
2018-05-27T01:23:22.385Z,14.70
2018-05-27T01:25:48.447Z,14.70
2018-05-27T01:28:14.517Z,14.70
2018-05-27T01:30:40.540Z,14.70
2018-05-27T01:33:06.590Z,14.60
2018-05-27T01:35:33.390Z,14.60
2018-05-27T01:37:59.627Z,14.60
2018-05-27T01:40:25.656Z,14.60
2018-05-27T01:42:51.706Z,14.60
2018-05-27T01:45:17.780Z,14.60
2018-05-27T01:47:43.831Z,14.60
2018-05-27T01:50:09.930Z,14.60
2018-05-27T01:52:36.055Z,14.50
2018-05-27T01:55:02.077Z,14.50
2018-05-27T01:57:28.106Z,14.50
2018-05-27T01:59:54.894Z,14.40
2018-05-27T02:02:20.956Z,14.40
2018-05-27T02:04:46.995Z,14.40
2018-05-27T02:07:13.054Z,14.40
2018-05-27T02:09:39.180Z,14.40
2018-05-27T02:12:05.218Z,14.40
2018-05-27T02:14:31.269Z,14.40
2018-05-27T02:16:57.456Z,14.40
2018-05-27T02:19:23.501Z,14.40
2018-05-27T02:21:49.548Z,14.30
2018-05-27T02:24:15.592Z,14.30
2018-05-27T02:26:42.362Z,14.30
2018-05-27T02:29:08.405Z,14.30
2018-05-27T02:31:34.666Z,14.30
2018-05-27T02:34:00.836Z,14.20
2018-05-27T02:36:26.860Z,14.20
2018-05-27T02:38:52.931Z,14.20
2018-05-27T02:41:19.182Z,14.20
2018-05-27T02:43:45.238Z,14.20
2018-05-27T02:46:11.261Z,14.10
2018-05-27T02:48:37.304Z,14.10
2018-05-27T02:51:03.362Z,14.10
2018-05-27T02:53:30.264Z,14.10
2018-05-27T02:55:56.342Z,14.10
2018-05-27T02:58:22.370Z,14.10
2018-05-27T03:00:48.478Z,14.10
2018-05-27T03:03:15.265Z,14.10
2018-05-27T03:05:41.302Z,14.10
2018-05-27T03:08:07.793Z,14.10
2018-05-27T03:10:33.874Z,14.10
2018-05-27T03:12:59.885Z,14.00
2018-05-27T03:15:25.908Z,14.00
2018-05-27T03:17:52.033Z,14.00
2018-05-27T03:20:18.059Z,14.00
2018-05-27T03:22:44.179Z,13.90
2018-05-27T03:25:10.381Z,13.90
2018-05-27T03:27:37.274Z,13.90
2018-05-27T03:30:03.616Z,13.90
2018-05-27T03:32:30.849Z,13.90
2018-05-27T03:34:57.649Z,13.90
2018-05-27T03:37:24.416Z,13.90
2018-05-27T03:39:50.457Z,13.90
2018-05-27T03:42:17.233Z,14.00
2018-05-27T03:44:43.322Z,14.00
2018-05-27T03:47:09.430Z,14.10
2018-05-27T03:49:35.501Z,14.20
2018-05-27T03:52:01.635Z,14.20
2018-05-27T03:54:27.703Z,14.30
2018-05-27T03:56:53.726Z,14.40
2018-05-27T03:59:20.587Z,14.50
2018-05-27T04:01:47.409Z,14.60
2018-05-27T04:04:26.041Z,14.60
2018-05-27T04:07:04.344Z,14.70
2018-05-27T04:09:30.475Z,14.70
2018-05-27T04:11:56.525Z,14.80
2018-05-27T04:14:22.601Z,14.90
2018-05-27T04:16:49.435Z,15.00
2018-05-27T04:19:15.494Z,15.00
2018-05-27T04:21:41.525Z,15.10
2018-05-27T04:24:07.644Z,15.10
2018-05-27T04:26:33.725Z,15.20
2018-05-27T04:28:59.792Z,15.30
2018-05-27T04:31:25.813Z,15.30
2018-05-27T04:33:51.833Z,15.40
2018-05-27T04:36:18.635Z,15.50
2018-05-27T04:38:44.668Z,15.50
2018-05-27T04:41:10.850Z,15.60
2018-05-27T04:43:37.651Z,15.80
2018-05-27T04:46:03.690Z,15.70
2018-05-27T04:48:29.715Z,15.80
2018-05-27T04:50:55.739Z,15.90
2018-05-27T04:53:21.823Z,16.00
2018-05-27T04:55:47.888Z,16.10
2018-05-27T04:58:14.657Z,16.30
2018-05-27T05:00:40.711Z,16.30
2018-05-27T05:03:06.775Z,16.40
2018-05-27T05:05:32.799Z,16.40
2018-05-27T05:07:58.825Z,16.40
2018-05-27T05:10:24.965Z,16.50
2018-05-27T05:12:51.035Z,16.60
2018-05-27T05:15:17.816Z,16.60
2018-05-27T05:17:44.022Z,16.60
2018-05-27T05:20:10.825Z,16.70
2018-05-27T05:22:36.891Z,16.70
2018-05-27T05:25:02.947Z,16.70
2018-05-27T05:27:29.021Z,16.80
2018-05-27T05:29:55.089Z,16.80
2018-05-27T05:32:21.143Z,16.90
2018-05-27T05:34:47.208Z,16.90
2018-05-27T05:37:13.252Z,17.00
2018-05-27T05:39:39.378Z,17.20
2018-05-27T05:42:05.437Z,17.20
2018-05-27T05:44:31.504Z,17.30
2018-05-27T05:46:58.282Z,17.40
2018-05-27T05:49:24.308Z,17.40
2018-05-27T05:51:50.326Z,17.50
2018-05-27T05:54:17.125Z,17.80
2018-05-27T05:56:43.193Z,17.80
2018-05-27T05:59:09.233Z,17.90
2018-05-27T06:01:35.281Z,18.00
2018-05-27T06:04:02.099Z,18.00
2018-05-27T06:06:28.130Z,18.00
2018-05-27T06:08:54.194Z,18.20
2018-05-27T06:11:20.269Z,18.20
2018-05-27T06:13:46.303Z,18.30
2018-05-27T06:16:12.365Z,18.30
2018-05-27T06:18:38.441Z,18.40
2018-05-27T06:21:04.500Z,18.50
2018-05-27T06:23:31.409Z,18.60
2018-05-27T06:25:57.438Z,18.60
2018-05-27T06:28:24.527Z,18.60
2018-05-27T06:30:50.607Z,18.70
2018-05-27T06:33:16.710Z,18.80
2018-05-27T06:35:42.883Z,18.90
2018-05-27T06:38:09.700Z,19.10
2018-05-27T06:40:35.753Z,19.10
2018-05-27T06:43:01.775Z,19.10
2018-05-27T06:45:27.809Z,19.10
2018-05-27T06:47:54.721Z,19.10
2018-05-27T06:50:20.764Z,19.10
2018-05-27T06:52:46.797Z,19.10
2018-05-27T06:55:12.841Z,19.20
2018-05-27T06:57:38.925Z,19.10
2018-05-27T07:00:05.124Z,19.00
2018-05-27T07:02:31.148Z,18.90
2018-05-27T07:04:57.246Z,18.90
2018-05-27T07:07:23.266Z,18.90
2018-05-27T07:09:49.320Z,18.90
2018-05-27T07:12:15.382Z,18.90
2018-05-27T07:14:42.197Z,18.90
2018-05-27T07:17:08.385Z,18.90
2018-05-27T07:19:35.190Z,18.90
2018-05-27T07:22:01.216Z,18.90
2018-05-27T07:24:27.289Z,18.90
2018-05-27T07:26:54.092Z,18.80
2018-05-27T07:29:20.159Z,18.80
2018-05-27T07:31:46.238Z,18.80
2018-05-27T07:34:13.038Z,18.90
2018-05-27T07:36:39.070Z,18.90
2018-05-27T07:39:05.122Z,18.90
2018-05-27T07:41:31.158Z,18.90
2018-05-27T07:43:57.193Z,19.00
2018-05-27T07:46:23.301Z,19.10
2018-05-27T07:48:49.513Z,19.20
2018-05-27T07:51:16.337Z,19.00
2018-05-27T07:53:42.382Z,19.00
2018-05-27T07:56:08.457Z,19.10
2018-05-27T07:58:34.543Z,19.10
2018-05-27T08:01:00.551Z,19.20
2018-05-27T08:03:26.578Z,19.10
2018-05-27T08:05:52.637Z,19.20
2018-05-27T08:08:18.669Z,19.30
2018-05-27T08:10:44.708Z,19.30
2018-05-27T08:13:10.803Z,19.30
2018-05-27T08:15:36.817Z,19.30
2018-05-27T08:18:02.865Z,19.30
2018-05-27T08:20:29.620Z,19.40
2018-05-27T08:22:55.701Z,19.40
2018-05-27T08:25:21.765Z,19.40
2018-05-27T08:27:47.839Z,19.40
2018-05-27T08:30:14.669Z,19.40
2018-05-27T08:32:40.688Z,19.40
2018-05-27T08:35:06.765Z,19.50
2018-05-27T08:37:32.790Z,19.50
2018-05-27T08:39:58.866Z,19.60
2018-05-27T08:42:24.942Z,19.60
2018-05-27T08:44:51.008Z,19.70
2018-05-27T08:47:17.886Z,19.70
2018-05-27T08:49:43.918Z,19.70
2018-05-27T08:52:10.708Z,20.00
2018-05-27T08:54:36.735Z,19.90
2018-05-27T08:57:02.789Z,20.00
2018-05-27T08:59:28.846Z,20.00
2018-05-27T09:01:54.918Z,20.00
2018-05-27T09:04:20.954Z,20.10
2018-05-27T09:06:47.013Z,20.20
2018-05-27T09:09:13.071Z,20.30
2018-05-27T09:11:39.211Z,20.40
2018-05-27T09:14:05.313Z,20.50
2018-05-27T09:16:31.409Z,20.60
2018-05-27T09:18:57.481Z,20.70
2018-05-27T09:21:24.281Z,20.70
2018-05-27T09:23:51.072Z,20.80
2018-05-27T09:26:17.858Z,20.60
2018-05-27T09:28:43.928Z,20.60
2018-05-27T09:31:09.965Z,20.70
2018-05-27T09:33:35.997Z,20.70
2018-05-27T09:36:02.060Z,20.70
2018-05-27T09:38:28.213Z,20.80
2018-05-27T09:40:54.330Z,20.90
2018-05-27T09:43:20.378Z,21.00
2018-05-27T09:45:46.405Z,21.20
2018-05-27T09:48:12.499Z,21.30
2018-05-27T09:50:38.528Z,21.30
2018-05-27T09:53:04.575Z,21.30
2018-05-27T09:55:30.671Z,21.30
2018-05-27T09:57:56.784Z,21.40
2018-05-27T10:00:23.525Z,21.30
2018-05-27T10:02:49.599Z,21.20
2018-05-27T10:05:15.697Z,21.40
2018-05-27T10:07:41.764Z,21.50
2018-05-27T10:10:07.863Z,21.70
2018-05-27T10:12:33.953Z,21.80
2018-05-27T10:14:59.990Z,21.80
2018-05-27T10:17:26.032Z,22.00
2018-05-27T10:19:52.798Z,22.20
2018-05-27T10:22:18.874Z,22.10
2018-05-27T10:24:45.212Z,22.30
2018-05-27T10:27:11.372Z,22.30
2018-05-27T10:29:37.686Z,22.50
2018-05-27T10:32:03.844Z,22.50
2018-05-27T10:34:30.280Z,22.60
2018-05-27T10:36:57.153Z,22.80
2018-05-27T10:39:23.208Z,22.80
2018-05-27T10:41:49.330Z,22.90
2018-05-27T10:44:15.391Z,23.10
2018-05-27T10:46:41.473Z,23.20
2018-05-27T10:49:07.501Z,23.20
2018-05-27T10:51:33.556Z,23.30
2018-05-27T10:53:59.679Z,23.40
2018-05-27T10:56:25.905Z,23.50
2018-05-27T10:58:52.796Z,23.70
2018-05-27T11:01:19.562Z,23.80
2018-05-27T11:03:45.665Z,23.80
2018-05-27T11:06:11.731Z,23.90
2018-05-27T11:08:37.805Z,24.10
2018-05-27T11:11:03.803Z,24.20
2018-05-27T11:13:29.844Z,24.60
2018-05-27T11:15:56.653Z,26.20
2018-05-27T11:18:24.027Z,27.00
2018-05-27T11:20:50.083Z,26.90
2018-05-27T11:23:16.107Z,27.70
2018-05-27T11:25:42.206Z,28.60
2018-05-27T11:28:08.265Z,29.40
2018-05-27T11:30:35.042Z,30.30
2018-05-27T11:33:01.098Z,30.30
2018-05-27T11:35:27.195Z,30.70
2018-05-27T11:37:53.379Z,30.90
2018-05-27T11:40:19.442Z,31.10
2018-05-27T11:42:45.475Z,31.40
2018-05-27T11:45:11.590Z,32.00
2018-05-27T11:47:37.663Z,32.40
2018-05-27T11:50:03.714Z,32.70
2018-05-27T11:52:30.075Z,32.80
2018-05-27T11:54:56.119Z,33.00
2018-05-27T11:57:22.194Z,33.40
2018-05-27T11:59:54.080Z,33.40
2018-05-27T12:02:20.139Z,34.00
2018-05-27T12:04:46.199Z,34.10
2018-05-27T12:07:12.555Z,34.30
2018-05-27T12:09:38.776Z,34.50
2018-05-27T12:12:04.653Z,35.40
2018-05-27T12:14:30.738Z,35.00
2018-05-27T12:16:56.910Z,34.90
2018-05-27T12:19:22.981Z,35.10
2018-05-27T12:21:49.282Z,35.40
2018-05-27T12:24:15.340Z,35.80
2018-05-27T12:26:41.442Z,36.40
2018-05-27T12:29:09.201Z,36.70
2018-05-27T12:31:35.243Z,36.60
2018-05-27T12:34:01.302Z,37.40
2018-05-27T12:36:28.090Z,38.50
2018-05-27T12:38:54.224Z,38.50
2018-05-27T12:41:27.214Z,38.60
2018-05-27T12:43:53.465Z,38.30
2018-05-27T12:46:19.490Z,38.40
2018-05-27T12:48:45.885Z,38.70
2018-05-27T12:51:11.949Z,39.10
2018-05-27T12:53:39.009Z,39.30
2018-05-27T12:56:05.097Z,39.20
2018-05-27T12:58:31.153Z,39.60
2018-05-27T13:00:57.193Z,39.60
2018-05-27T13:03:23.276Z,39.50
2018-05-27T13:05:49.312Z,39.30
2018-05-27T13:08:15.336Z,39.60
2018-05-27T13:10:42.106Z,39.90
2018-05-27T13:13:08.182Z,39.90
2018-05-27T13:15:34.229Z,39.70
2018-05-27T13:18:00.352Z,40.10
2018-05-27T13:20:26.380Z,39.40
2018-05-27T13:22:53.219Z,39.70
2018-05-27T13:25:19.270Z,39.70
2018-05-27T13:27:45.301Z,39.50
2018-05-27T13:30:11.364Z,39.50
2018-05-27T13:32:37.424Z,39.80
2018-05-27T13:35:04.213Z,40.70
2018-05-27T13:37:30.237Z,40.70
2018-05-27T13:39:57.026Z,40.90
2018-05-27T13:42:23.071Z,40.90
2018-05-27T13:44:49.092Z,41.00
2018-05-27T13:47:15.109Z,41.00
2018-05-27T13:49:41.132Z,41.90
2018-05-27T13:52:07.943Z,41.90
2018-05-27T13:54:33.985Z,41.90
2018-05-27T13:57:00.043Z,42.40
2018-05-27T13:59:26.116Z,42.40
2018-05-27T14:01:52.134Z,42.30
2018-05-27T14:04:18.184Z,41.10
2018-05-27T14:06:44.957Z,42.40
2018-05-27T14:09:11.270Z,42.50
2018-05-27T14:11:38.297Z,43.20
2018-05-27T14:14:04.365Z,43.20
2018-05-27T14:16:31.147Z,43.50
2018-05-27T14:18:57.191Z,43.40
2018-05-27T14:21:23.234Z,44.50
2018-05-27T14:23:49.277Z,44.00
2018-05-27T14:26:15.320Z,43.60
2018-05-27T14:28:41.538Z,43.50
2018-05-27T14:31:07.596Z,44.20
2018-05-27T14:33:33.608Z,44.10
2018-05-27T14:35:59.660Z,45.00
2018-05-27T14:38:25.906Z,44.60
2018-05-27T14:40:51.945Z,44.20
2018-05-27T14:43:18.006Z,44.30
2018-05-27T14:45:44.029Z,44.60
2018-05-27T14:48:10.741Z,44.00
2018-05-27T14:50:36.846Z,43.40
2018-05-27T14:53:02.907Z,43.50
2018-05-27T14:55:29.680Z,44.20
2018-05-27T14:57:55.800Z,44.10
2018-05-27T15:00:21.897Z,44.40
2018-05-27T15:02:47.921Z,44.60
2018-05-27T15:05:13.956Z,45.10
2018-05-27T15:07:40.121Z,45.60
2018-05-27T15:10:06.210Z,45.20
2018-05-27T15:12:32.269Z,45.70
2018-05-27T15:14:58.312Z,45.20
2018-05-27T15:17:25.141Z,43.90
2018-05-27T15:19:51.170Z,43.90
2018-05-27T15:22:17.279Z,44.80
2018-05-27T15:24:44.137Z,42.50
2018-05-27T15:27:10.422Z,42.40
2018-05-27T15:29:36.538Z,42.90
2018-05-27T15:32:02.633Z,43.60
2018-05-27T15:34:28.781Z,43.40
2018-05-27T15:36:56.096Z,43.20
2018-05-27T15:39:22.168Z,43.80
2018-05-27T15:41:48.582Z,44.20
2018-05-27T15:44:14.677Z,44.70
2018-05-27T15:46:40.725Z,44.10
2018-05-27T15:49:07.518Z,43.40
2018-05-27T15:51:33.670Z,43.40
2018-05-27T15:54:00.918Z,43.40
2018-05-27T15:56:26.947Z,42.40
2018-05-27T15:58:53.041Z,42.60
2018-05-27T16:01:19.091Z,42.10
2018-05-27T16:03:45.874Z,42.60
2018-05-27T16:06:11.974Z,42.60
2018-05-27T16:08:38.049Z,42.70
2018-05-27T16:11:04.104Z,41.80
2018-05-27T16:13:30.130Z,42.60
2018-05-27T16:15:56.153Z,42.40
2018-05-27T16:18:22.188Z,42.50
2018-05-27T16:20:48.249Z,42.90
2018-05-27T16:23:16.253Z,42.30
2018-05-27T16:25:42.733Z,43.10
2018-05-27T16:28:08.817Z,43.10
2018-05-27T16:30:34.867Z,43.80
2018-05-27T16:33:00.947Z,43.90
2018-05-27T16:35:27.079Z,43.00
2018-05-27T16:37:53.929Z,42.60
2018-05-27T16:40:19.996Z,42.70
2018-05-27T16:42:47.033Z,41.70
2018-05-27T16:45:13.110Z,41.70
2018-05-27T16:47:39.190Z,40.60
2018-05-27T16:50:05.216Z,40.50
2018-05-27T16:52:31.239Z,41.10
2018-05-27T16:54:57.260Z,41.50
2018-05-27T16:57:23.313Z,41.50
2018-05-27T16:59:49.704Z,41.60
2018-05-27T17:02:16.500Z,41.30
2018-05-27T17:04:42.568Z,41.30
2018-05-27T17:07:08.660Z,41.30
2018-05-27T17:09:34.690Z,41.40
2018-05-27T17:12:00.801Z,41.40
2018-05-27T17:14:27.636Z,39.10
2018-05-27T17:16:54.427Z,38.60
2018-05-27T17:19:20.552Z,38.60
2018-05-27T17:21:46.677Z,38.10
2018-05-27T17:24:12.701Z,36.40
2018-05-27T17:26:38.840Z,34.90
2018-05-27T17:29:04.894Z,33.10
2018-05-27T17:31:37.844Z,31.60
2018-05-27T17:34:03.881Z,30.20
2018-05-27T17:36:29.952Z,29.60
2018-05-27T17:38:56.014Z,28.80
2018-05-27T17:41:22.063Z,28.40
2018-05-27T17:43:48.898Z,27.70
2018-05-27T17:46:14.977Z,27.70
2018-05-27T17:48:41.054Z,27.30
2018-05-27T17:51:07.148Z,27.20
2018-05-27T17:53:33.253Z,26.80
2018-05-27T17:55:59.347Z,26.60
2018-05-27T17:58:25.403Z,26.50
2018-05-27T18:00:51.433Z,26.30
2018-05-27T18:03:18.270Z,26.00
2018-05-27T18:05:45.062Z,25.80
2018-05-27T18:08:11.145Z,25.80
2018-05-27T18:10:37.213Z,25.70
2018-05-27T18:13:03.277Z,25.60
2018-05-27T18:15:29.325Z,25.60
2018-05-27T18:17:55.350Z,25.40
2018-05-27T18:20:21.396Z,25.20
2018-05-27T18:25:20.261Z,24.60
2018-05-27T18:27:47.045Z,24.10
2018-05-27T18:30:13.069Z,24.00
2018-05-27T18:32:39.524Z,23.90
2018-05-27T18:35:05.732Z,23.70
2018-05-27T18:37:32.531Z,23.50
2018-05-27T18:39:58.560Z,23.50
2018-05-27T18:42:24.601Z,23.40
2018-05-27T18:44:50.645Z,23.20
2018-05-27T18:47:16.674Z,23.10
2018-05-27T18:49:42.752Z,23.00
2018-05-27T18:52:09.740Z,22.90
2018-05-27T18:54:35.814Z,22.80
2018-05-27T18:57:01.989Z,22.70
2018-05-27T18:59:28.765Z,22.30
2018-05-27T19:01:56.232Z,22.10
2018-05-27T19:04:23.068Z,22.10
2018-05-27T19:06:49.862Z,22.00
2018-05-27T19:09:15.897Z,22.00
2018-05-27T19:11:42.140Z,22.00
2018-05-27T19:14:08.260Z,21.90
2018-05-27T19:16:34.297Z,21.80
2018-05-27T19:19:00.365Z,21.70
2018-05-27T19:21:26.415Z,21.60
2018-05-27T19:23:52.440Z,21.50
2018-05-27T19:26:18.509Z,21.30
2018-05-27T19:28:44.610Z,21.10
2018-05-27T19:31:10.922Z,20.90
2018-05-27T19:33:37.664Z,20.80
2018-05-27T19:36:03.707Z,20.70
2018-05-27T19:38:31.304Z,20.40
2018-05-27T19:40:57.410Z,20.40
2018-05-27T19:43:23.495Z,20.30
2018-05-27T19:45:49.708Z,20.20
2018-05-27T19:48:16.494Z,20.10
2018-05-27T19:50:42.758Z,20.00
2018-05-27T19:53:08.889Z,20.00
2018-05-27T19:55:34.942Z,19.90
2018-05-27T19:58:00.982Z,19.80
2018-05-27T20:00:27.041Z,19.80
2018-05-27T20:02:53.148Z,19.70
2018-05-27T20:05:20.090Z,19.60
2018-05-27T20:07:46.164Z,19.60
2018-05-27T20:10:12.344Z,19.60
2018-05-27T20:12:38.851Z,19.60
2018-05-27T20:15:04.953Z,19.60
2018-05-27T20:17:31.701Z,19.50
2018-05-27T20:19:57.732Z,19.50
2018-05-27T20:22:23.753Z,19.50
2018-05-27T20:24:49.799Z,19.50
2018-05-27T20:27:15.857Z,19.40
2018-05-27T20:29:41.922Z,19.40
2018-05-27T20:32:07.962Z,19.30
2018-05-27T20:34:34.016Z,19.30
2018-05-27T20:37:00.816Z,19.20
2018-05-27T20:39:26.877Z,19.10
2018-05-27T20:41:52.932Z,19.10
2018-05-27T20:44:18.999Z,19.10
2018-05-27T20:46:45.154Z,19.00
2018-05-27T20:49:11.286Z,19.00
2018-05-27T20:51:37.336Z,18.90
2018-05-27T20:54:03.401Z,18.90
2018-05-27T20:56:29.471Z,18.90
2018-05-27T20:58:55.515Z,18.80
2018-05-27T21:01:22.346Z,18.80
2018-05-27T21:03:49.234Z,18.70
2018-05-27T21:06:15.570Z,18.70
2018-05-27T21:08:42.577Z,18.70
2018-05-27T21:11:09.116Z,18.70
2018-05-27T21:13:35.098Z,18.70
2018-05-27T21:16:01.157Z,18.70
2018-05-27T21:18:27.225Z,18.70
2018-05-27T21:20:53.493Z,18.70
2018-05-27T21:23:19.583Z,18.70
2018-05-27T21:25:45.691Z,18.70
2018-05-27T21:28:11.715Z,18.70
2018-05-27T21:30:37.792Z,18.70
2018-05-27T21:33:04.126Z,18.70
2018-05-27T21:35:30.190Z,18.70
2018-05-27T21:37:56.322Z,18.60
2018-05-27T21:40:22.397Z,18.60
2018-05-27T21:42:48.724Z,18.60
2018-05-27T21:45:14.757Z,18.60
2018-05-27T21:47:40.811Z,18.60
2018-05-27T21:50:06.859Z,18.50
2018-05-27T21:52:32.884Z,18.50
2018-05-27T21:54:58.946Z,18.50
2018-05-27T21:57:24.998Z,18.50
2018-05-27T21:59:51.764Z,18.40
2018-05-27T22:02:18.579Z,18.40
2018-05-27T22:04:44.630Z,18.40
2018-05-27T22:07:10.690Z,18.40
2018-05-27T22:09:36.754Z,18.40
2018-05-27T22:12:02.806Z,18.40
2018-05-27T22:14:28.843Z,18.40
2018-05-27T22:16:54.895Z,18.40
2018-05-27T22:19:20.929Z,18.40
2018-05-27T22:21:47.158Z,18.40
2018-05-27T22:24:13.253Z,18.40
2018-05-27T22:26:39.316Z,18.30
2018-05-27T22:29:05.372Z,18.30
2018-05-27T22:31:31.429Z,18.40
2018-05-27T22:33:57.792Z,18.30
2018-05-27T22:36:23.821Z,18.30
2018-05-27T22:38:49.886Z,18.40
2018-05-27T22:41:16.684Z,18.30
2018-05-27T22:43:42.816Z,18.40
2018-05-27T22:46:08.869Z,18.30
2018-05-27T22:48:34.916Z,18.30
2018-05-27T22:51:01.008Z,18.30
2018-05-27T22:53:27.047Z,18.30
2018-05-27T22:55:53.073Z,18.30
2018-05-27T22:58:19.866Z,18.30
2018-05-27T23:00:45.891Z,18.20
2018-05-27T23:03:11.946Z,18.30
2018-05-27T23:05:38.009Z,18.30
2018-05-27T23:08:04.063Z,18.30
2018-05-27T23:10:30.865Z,18.40
2018-05-27T23:12:56.940Z,18.30
2018-05-27T23:15:23.749Z,18.40
2018-05-27T23:17:49.795Z,18.40
2018-05-27T23:20:15.833Z,18.40
2018-05-27T23:22:41.910Z,18.40
2018-05-27T23:25:08.387Z,18.40
2018-05-27T23:27:34.464Z,18.50
2018-05-27T23:30:00.488Z,18.40
2018-05-27T23:32:26.538Z,18.40
2018-05-27T23:34:52.545Z,18.40
2018-05-27T23:37:18.602Z,18.40
2018-05-27T23:39:44.629Z,18.40
2018-05-27T23:42:10.715Z,18.40
2018-05-27T23:44:36.781Z,18.40
2018-05-27T23:47:02.812Z,18.50
2018-05-27T23:49:28.885Z,18.40
2018-05-27T23:51:54.957Z,18.40
2018-05-27T23:54:22.050Z,18.40
2018-05-27T23:56:48.149Z,18.40
2018-05-27T23:59:14.173Z,18.30
